createdAt,value
2017-06-04T00:00:53.789Z,87.70
2017-06-04T00:03:21.292Z,88.50
2017-06-04T00:05:48.843Z,88.80
2017-06-04T00:08:16.341Z,89.20
2017-06-04T00:10:44.617Z,90.90
2017-06-04T00:13:12.901Z,91.20
2017-06-04T00:15:40.418Z,91.20
2017-06-04T00:18:07.933Z,91.30
2017-06-04T00:20:35.441Z,91.40
2017-06-04T00:23:02.956Z,91.80
2017-06-04T00:25:30.458Z,91.90
2017-06-04T00:27:57.989Z,91.30
2017-06-04T00:30:25.493Z,91.70
2017-06-04T00:32:53.800Z,90.30
2017-06-04T00:35:21.301Z,90.20
2017-06-04T00:37:48.804Z,90.90
2017-06-04T00:40:16.341Z,90.70
2017-06-04T00:42:44.638Z,90.00
2017-06-04T00:45:12.174Z,90.00
2017-06-04T00:47:39.687Z,89.60
2017-06-04T00:50:07.214Z,90.10
2017-06-04T00:52:35.481Z,90.10
2017-06-04T00:55:03.757Z,90.40
2017-06-04T00:57:32.049Z,90.10
2017-06-04T00:59:59.549Z,90.10
2017-06-04T01:02:27.077Z,90.30
2017-06-04T01:04:54.574Z,89.30
2017-06-04T01:07:22.110Z,87.90
2017-06-04T01:09:49.622Z,90.00
2017-06-04T01:12:17.901Z,90.40
2017-06-04T01:14:46.221Z,89.50
2017-06-04T01:17:13.725Z,89.40
2017-06-04T01:19:41.229Z,89.60
2017-06-04T01:22:08.753Z,89.70
2017-06-04T01:24:37.037Z,90.50
2017-06-04T01:27:05.314Z,90.80
2017-06-04T01:29:33.606Z,90.10
2017-06-04T01:32:01.115Z,90.10
2017-06-04T01:34:28.637Z,90.20
2017-06-04T01:36:56.149Z,90.60
2017-06-04T01:39:23.710Z,90.90
2017-06-04T01:41:51.217Z,90.70
2017-06-04T01:44:18.721Z,91.00
2017-06-04T01:46:46.262Z,91.20
2017-06-04T01:49:13.769Z,91.30
2017-06-04T01:51:41.305Z,90.90
2017-06-04T01:54:08.813Z,91.10
2017-06-04T01:56:36.313Z,91.30
2017-06-04T01:59:03.837Z,91.20
2017-06-04T02:01:31.342Z,91.00
2017-06-04T02:03:58.905Z,90.70
2017-06-04T02:06:27.178Z,90.80
2017-06-04T02:08:54.679Z,90.90
2017-06-04T02:11:22.201Z,90.00
2017-06-04T02:13:50.473Z,91.70
2017-06-04T02:16:18.773Z,91.40
2017-06-04T02:18:46.278Z,91.10
2017-06-04T02:21:13.817Z,91.00
2017-06-04T02:23:41.329Z,91.70
2017-06-04T02:26:08.825Z,91.70
2017-06-04T02:28:36.354Z,91.50
2017-06-04T02:31:04.634Z,91.30
2017-06-04T02:33:32.924Z,91.60
2017-06-04T02:36:00.446Z,91.60
2017-06-04T02:38:27.976Z,91.60
2017-06-04T02:40:55.485Z,91.60
2017-06-04T02:43:23.754Z,91.30
2017-06-04T02:45:52.066Z,92.30
2017-06-04T02:48:19.577Z,92.00
2017-06-04T02:50:47.077Z,91.70
2017-06-04T02:53:14.613Z,92.00
2017-06-04T02:55:42.878Z,91.70
2017-06-04T02:58:10.435Z,91.40
2017-06-04T03:00:37.929Z,91.00
2017-06-04T03:03:05.429Z,91.10
2017-06-04T03:05:32.958Z,92.00
2017-06-04T03:08:00.468Z,90.90
2017-06-04T03:10:28.015Z,91.10
2017-06-04T03:12:55.506Z,91.40
2017-06-04T03:15:23.022Z,90.20
2017-06-04T03:17:51.350Z,90.00
2017-06-04T03:20:18.853Z,90.00
2017-06-04T03:22:46.393Z,90.50
2017-06-04T03:25:13.899Z,90.70
2017-06-04T03:27:41.401Z,90.00
2017-06-04T03:30:08.929Z,88.10
2017-06-04T03:32:36.429Z,90.40
2017-06-04T03:35:03.998Z,88.90
2017-06-04T03:37:31.497Z,88.50
2017-06-04T03:39:59.002Z,88.00
2017-06-04T03:42:26.562Z,88.10
2017-06-04T03:44:54.065Z,88.00
2017-06-04T03:47:21.569Z,88.80
2017-06-04T03:49:49.102Z,90.00
2017-06-04T03:52:16.625Z,87.80
2017-06-04T03:54:44.141Z,88.90
2017-06-04T03:57:11.654Z,87.80
2017-06-04T03:59:39.190Z,90.00
2017-06-04T04:02:06.697Z,87.10
2017-06-04T04:04:34.206Z,88.70
2017-06-04T04:07:01.718Z,88.10
2017-06-04T04:09:29.990Z,87.20
2017-06-04T04:11:58.296Z,88.80
2017-06-04T04:14:25.813Z,89.40
2017-06-04T04:16:53.305Z,89.20
2017-06-04T04:19:20.841Z,90.60
2017-06-04T04:21:48.341Z,87.60
2017-06-04T04:24:15.849Z,87.50
2017-06-04T04:26:43.365Z,88.60
2017-06-04T04:29:10.884Z,88.10
2017-06-04T04:31:39.177Z,88.70
2017-06-04T04:34:07.473Z,90.20
2017-06-04T04:36:34.977Z,90.10
2017-06-04T04:39:02.477Z,89.20
2017-06-04T04:41:30.013Z,90.30
2017-06-04T04:43:58.285Z,89.80
2017-06-04T04:46:25.785Z,89.20
2017-06-04T04:48:53.325Z,90.20
2017-06-04T04:51:20.835Z,89.50
2017-06-04T04:53:48.333Z,89.50
2017-06-04T04:56:16.617Z,86.80
2017-06-04T04:58:44.145Z,86.60
2017-06-04T05:01:11.681Z,86.80
2017-06-04T05:03:39.189Z,87.60
2017-06-04T05:06:07.453Z,85.60
2017-06-04T05:08:35.760Z,84.20
2017-06-04T05:11:03.261Z,84.30
2017-06-04T05:13:30.761Z,85.60
2017-06-04T05:15:59.057Z,85.00
2017-06-04T05:18:26.565Z,85.00
2017-06-04T05:20:54.084Z,85.00
2017-06-04T05:23:21.602Z,84.50
2017-06-04T05:25:49.101Z,84.30
2017-06-04T05:28:16.633Z,85.60
2017-06-04T05:30:44.137Z,85.30
2017-06-04T05:33:11.649Z,85.60
2017-06-04T05:35:39.986Z,84.30
2017-06-04T05:38:07.494Z,84.30
2017-06-04T05:40:35.001Z,86.50
2017-06-04T05:43:02.521Z,88.30
2017-06-04T05:45:30.029Z,86.60
2017-06-04T05:47:57.553Z,84.00
2017-06-04T05:50:25.062Z,85.40
2017-06-04T05:52:52.594Z,84.20
2017-06-04T05:55:20.093Z,81.20
2017-06-04T05:57:48.361Z,77.90
2017-06-04T06:00:16.666Z,84.60
2017-06-04T06:02:44.170Z,84.60
2017-06-04T06:05:11.731Z,78.00
2017-06-04T06:07:39.234Z,79.20
2017-06-04T06:10:07.507Z,82.90
2017-06-04T06:12:35.827Z,80.70
2017-06-04T06:15:03.326Z,80.60
2017-06-04T06:17:31.594Z,76.80
2017-06-04T06:19:59.132Z,76.30
2017-06-04T06:22:26.638Z,77.30
2017-06-04T06:24:54.909Z,81.50
2017-06-04T06:27:23.218Z,81.30
2017-06-04T06:29:50.733Z,81.30
2017-06-04T06:32:19.009Z,80.30
2017-06-04T06:34:47.321Z,79.40
2017-06-04T06:37:14.822Z,78.90
2017-06-04T06:39:42.405Z,77.80
2017-06-04T06:42:09.969Z,80.00
2017-06-04T06:44:38.234Z,75.70
2017-06-04T06:47:05.737Z,75.50
2017-06-04T06:49:33.262Z,80.00
2017-06-04T06:52:01.573Z,77.10
2017-06-04T06:54:29.070Z,76.90
2017-06-04T06:56:56.585Z,75.30
2017-06-04T06:59:24.093Z,73.50
2017-06-04T07:01:51.597Z,80.30
2017-06-04T07:04:19.136Z,76.00
2017-06-04T07:06:47.406Z,75.20
2017-06-04T07:09:14.913Z,75.10
2017-06-04T07:11:42.441Z,75.40
2017-06-04T07:14:10.729Z,71.20
2017-06-04T07:16:38.269Z,71.10
2017-06-04T07:19:06.535Z,74.20
2017-06-04T07:21:34.037Z,74.10
2017-06-04T07:24:01.569Z,70.20
2017-06-04T07:26:29.538Z,70.00
2017-06-04T07:28:59.001Z,73.00
2017-06-04T07:31:26.616Z,68.90
2017-06-04T07:33:54.171Z,68.10
2017-06-04T07:36:21.693Z,64.70
2017-06-04T07:38:49.193Z,66.70
2017-06-04T07:41:16.729Z,66.60
2017-06-04T07:43:44.997Z,66.60
2017-06-04T07:46:13.285Z,64.30
2017-06-04T07:48:41.605Z,65.40
2017-06-04T07:51:09.110Z,65.40
2017-06-04T07:53:36.613Z,64.60
2017-06-04T07:56:04.149Z,68.20
2017-06-04T07:58:32.414Z,67.50
2017-06-04T08:01:00.697Z,67.40
2017-06-04T08:03:28.221Z,67.00
2017-06-04T08:05:55.729Z,66.20
2017-06-04T08:08:23.309Z,69.90
2017-06-04T08:10:51.286Z,63.20
2017-06-04T08:13:18.870Z,64.40
2017-06-04T08:15:46.872Z,64.10
2017-06-04T08:18:15.697Z,65.70
2017-06-04T08:20:43.305Z,65.70
2017-06-04T08:23:12.069Z,62.50
2017-06-04T08:25:39.673Z,62.50
2017-06-04T08:28:07.260Z,62.30
2017-06-04T08:30:34.819Z,59.90
2017-06-04T08:33:02.345Z,58.70
2017-06-04T08:35:29.906Z,58.10
2017-06-04T08:37:58.213Z,55.50
2017-06-04T08:40:25.769Z,54.60
2017-06-04T08:42:53.293Z,56.90
2017-06-04T08:45:21.587Z,53.70
2017-06-04T08:47:49.607Z,53.60
2017-06-04T08:50:17.652Z,56.40
2017-06-04T08:52:45.993Z,54.60
2017-06-04T08:55:14.034Z,54.50
2017-06-04T08:57:42.090Z,52.60
2017-06-04T09:00:09.700Z,55.90
2017-06-04T09:02:37.289Z,55.50
2017-06-04T09:05:04.806Z,54.50
2017-06-04T09:07:32.309Z,56.60
2017-06-04T09:09:59.879Z,56.40
2017-06-04T09:12:27.863Z,57.10
2017-06-04T09:14:55.918Z,55.90
2017-06-04T09:17:23.625Z,56.80
2017-06-04T09:19:51.589Z,55.00
2017-06-04T09:22:19.191Z,54.50
2017-06-04T09:24:47.789Z,51.80
2017-06-04T09:27:15.837Z,52.20
2017-06-04T09:29:44.736Z,53.90
2017-06-04T09:32:12.786Z,53.90
2017-06-04T09:34:40.877Z,54.20
2017-06-04T09:37:08.962Z,56.00
2017-06-04T09:39:37.074Z,48.70
2017-06-04T09:42:05.191Z,47.70
2017-06-04T09:44:33.233Z,47.20
2017-06-04T09:47:01.294Z,47.70
2017-06-04T09:49:29.429Z,48.10
2017-06-04T09:51:57.492Z,50.70
2017-06-04T09:54:25.545Z,48.40
2017-06-04T09:56:54.404Z,47.60
2017-06-04T09:59:22.459Z,47.50
2017-06-04T10:01:50.530Z,45.90
2017-06-04T10:04:18.594Z,48.50
2017-06-04T10:06:46.658Z,46.80
2017-06-04T10:09:14.760Z,47.40
2017-06-04T10:11:42.856Z,44.60
2017-06-04T10:14:10.936Z,44.00
2017-06-04T10:16:39.850Z,44.70
2017-06-04T10:19:08.258Z,44.60
2017-06-04T10:21:36.314Z,43.60
2017-06-04T10:24:04.374Z,42.60
2017-06-04T10:26:32.842Z,41.20
2017-06-04T10:29:00.874Z,44.70
2017-06-04T10:31:28.929Z,41.40
2017-06-04T10:33:57.006Z,42.40
2017-06-04T10:36:25.073Z,40.40
2017-06-04T10:38:53.152Z,41.80
2017-06-04T10:41:21.213Z,40.70
2017-06-04T10:43:49.269Z,39.70
2017-06-04T10:46:18.259Z,38.40
2017-06-04T10:48:46.319Z,40.10
2017-06-04T10:51:14.863Z,35.80
2017-06-04T10:53:42.926Z,36.00
2017-06-04T10:56:11.003Z,35.90
2017-06-04T10:58:39.086Z,37.60
2017-06-04T11:01:07.162Z,41.90
2017-06-04T11:03:35.226Z,31.30
2017-06-04T11:06:03.303Z,33.00
2017-06-04T11:08:31.358Z,31.70
2017-06-04T11:10:59.418Z,33.00
2017-06-04T11:13:28.298Z,30.00
2017-06-04T11:15:57.126Z,28.60
2017-06-04T11:18:25.188Z,28.50
2017-06-04T11:20:53.290Z,29.80
2017-06-04T11:23:21.350Z,29.40
2017-06-04T11:25:49.461Z,27.30
2017-06-04T11:28:17.529Z,26.30
2017-06-04T11:30:45.582Z,27.60
2017-06-04T11:33:14.442Z,23.30
2017-06-04T11:35:42.502Z,23.20
2017-06-04T11:38:10.558Z,24.70
2017-06-04T11:40:38.639Z,25.20
2017-06-04T11:43:06.717Z,25.70
2017-06-04T11:45:34.780Z,24.90
2017-06-04T11:48:02.905Z,24.30
2017-06-04T11:50:31.726Z,25.60
2017-06-04T11:52:59.778Z,25.50
2017-06-04T11:55:28.189Z,26.60
2017-06-04T11:57:56.250Z,25.70
2017-06-04T12:00:24.306Z,27.30
2017-06-04T12:02:52.556Z,25.50
2017-06-04T12:05:20.610Z,25.50
2017-06-04T12:07:48.666Z,25.40
2017-06-04T12:10:16.953Z,24.20
2017-06-04T12:12:45.032Z,24.30
2017-06-04T12:15:13.110Z,25.50
2017-06-04T12:17:41.210Z,26.00
2017-06-04T12:20:09.266Z,23.80
2017-06-04T12:22:38.106Z,25.70
2017-06-04T12:25:06.163Z,25.50
2017-06-04T12:27:34.242Z,26.10
2017-06-04T12:30:02.377Z,26.40
2017-06-04T12:32:30.411Z,27.20
2017-06-04T12:34:58.478Z,27.80
2017-06-04T12:37:26.538Z,29.90
2017-06-04T12:39:55.258Z,30.10
2017-06-04T12:42:23.322Z,30.00
2017-06-04T12:44:51.421Z,28.90
2017-06-04T12:47:19.109Z,29.50
2017-06-04T12:49:46.581Z,29.50
2017-06-04T12:52:14.738Z,29.10
2017-06-04T12:54:42.248Z,30.30
2017-06-04T12:57:09.816Z,30.00
2017-06-04T12:59:38.550Z,29.60
2017-06-04T13:02:06.614Z,29.60
2017-06-04T13:04:34.739Z,29.30
2017-06-04T13:07:02.779Z,30.60
2017-06-04T13:09:30.385Z,29.20
2017-06-04T13:11:57.913Z,30.10
2017-06-04T13:14:25.946Z,28.30
2017-06-04T13:16:54.790Z,25.00
2017-06-04T13:19:22.922Z,25.00
2017-06-04T13:21:51.277Z,26.60
2017-06-04T13:24:19.558Z,27.50
2017-06-04T13:26:47.886Z,29.00
2017-06-04T13:29:15.464Z,28.90
2017-06-04T13:31:42.972Z,29.20
2017-06-04T13:34:11.274Z,30.00
2017-06-04T13:36:39.581Z,29.00
2017-06-04T13:39:07.105Z,29.00
2017-06-04T13:41:34.657Z,29.30
2017-06-04T13:44:02.197Z,29.80
2017-06-04T13:46:30.550Z,30.60
2017-06-04T13:48:58.057Z,29.10
2017-06-04T13:51:25.663Z,29.10
2017-06-04T13:53:53.679Z,28.90
2017-06-04T13:56:22.518Z,25.00
2017-06-04T13:58:51.165Z,25.40
2017-06-04T14:01:19.310Z,24.90
2017-06-04T14:03:48.258Z,24.10
2017-06-04T14:06:16.378Z,24.00
2017-06-04T14:08:44.526Z,24.30
2017-06-04T14:11:12.653Z,22.30
2017-06-04T14:13:40.697Z,24.30
2017-06-04T14:16:09.583Z,26.90
2017-06-04T14:18:37.222Z,26.90
2017-06-04T14:21:04.758Z,29.30
2017-06-04T14:23:32.375Z,30.70
2017-06-04T14:25:59.945Z,31.20
2017-06-04T14:28:27.616Z,31.20
2017-06-04T14:30:56.236Z,29.70
2017-06-04T14:33:24.309Z,30.30
2017-06-04T14:35:52.440Z,29.30
2017-06-04T14:38:20.515Z,29.40
2017-06-04T14:40:48.654Z,27.60
2017-06-04T14:43:17.505Z,25.80
2017-06-04T14:45:46.046Z,25.50
2017-06-04T14:48:15.682Z,23.50
2017-06-04T14:50:43.838Z,23.50
2017-06-04T14:53:11.910Z,25.00
2017-06-04T14:55:39.980Z,24.80
2017-06-04T14:58:08.066Z,26.30
2017-06-04T15:00:36.160Z,26.10
2017-06-04T15:03:04.273Z,27.40
2017-06-04T15:05:33.142Z,28.80
2017-06-04T15:08:02.650Z,28.80
2017-06-04T15:10:31.414Z,30.70
2017-06-04T15:12:59.062Z,30.00
2017-06-04T15:15:26.573Z,29.30
2017-06-04T15:17:54.098Z,32.50
2017-06-04T15:20:21.642Z,29.90
2017-06-04T15:22:49.627Z,28.80
2017-06-04T15:25:17.698Z,27.60
2017-06-04T15:27:45.764Z,27.80
2017-06-04T15:30:13.379Z,26.40
2017-06-04T15:32:41.378Z,26.80
2017-06-04T15:35:09.480Z,26.20
2017-06-04T15:37:37.534Z,28.70
2017-06-04T15:40:06.261Z,25.10
2017-06-04T15:42:35.134Z,23.70
2017-06-04T15:45:03.199Z,23.70
2017-06-04T15:47:31.269Z,24.80
2017-06-04T15:49:59.376Z,25.70
2017-06-04T15:52:27.426Z,25.60
2017-06-04T15:54:55.542Z,25.50
2017-06-04T15:57:23.614Z,25.70
2017-06-04T15:59:51.686Z,25.70
2017-06-04T16:02:19.772Z,24.80
2017-06-04T16:04:47.836Z,25.00
2017-06-04T16:07:15.977Z,23.90
2017-06-04T16:09:44.829Z,26.70
2017-06-04T16:12:12.886Z,26.70
2017-06-04T16:14:40.990Z,25.80
2017-06-04T16:17:09.066Z,24.40
2017-06-04T16:19:37.417Z,25.10
2017-06-04T16:22:05.477Z,24.20
2017-06-04T16:24:33.534Z,24.60
2017-06-04T16:27:01.896Z,27.30
2017-06-04T16:29:31.074Z,26.80
2017-06-04T16:31:58.562Z,26.70
2017-06-04T16:34:26.089Z,27.10
2017-06-04T16:36:53.645Z,28.30
2017-06-04T16:39:21.216Z,28.40
2017-06-04T16:41:49.513Z,29.70
2017-06-04T16:44:17.548Z,29.40
2017-06-04T16:46:45.596Z,28.50
2017-06-04T16:49:13.714Z,28.20
2017-06-04T16:51:42.582Z,26.60
2017-06-04T16:54:10.696Z,26.60
2017-06-04T16:56:39.502Z,24.10
2017-06-04T16:59:07.557Z,24.00
2017-06-04T17:01:35.695Z,26.70
2017-06-04T17:04:03.734Z,25.20
2017-06-04T17:06:31.810Z,25.10
2017-06-04T17:08:59.417Z,26.30
2017-06-04T17:11:26.970Z,27.90
2017-06-04T17:13:55.261Z,28.60
2017-06-04T17:16:23.593Z,27.60
2017-06-04T17:18:51.139Z,27.50
2017-06-04T17:21:18.730Z,27.70
2017-06-04T17:23:46.298Z,28.20
2017-06-04T17:26:13.859Z,28.80
2017-06-04T17:28:41.401Z,28.40
2017-06-04T17:31:08.906Z,27.90
2017-06-04T17:33:38.436Z,29.20
2017-06-04T17:36:05.971Z,29.60
2017-06-04T17:38:33.516Z,28.50
2017-06-04T17:41:01.815Z,29.70
2017-06-04T17:43:29.339Z,29.70
2017-06-04T17:45:56.875Z,31.20
2017-06-04T17:48:24.851Z,30.60
2017-06-04T17:50:52.965Z,30.50
2017-06-04T17:53:21.362Z,31.60
2017-06-04T17:55:48.892Z,31.50
2017-06-04T17:58:17.314Z,31.90
2017-06-04T18:00:45.408Z,33.00
2017-06-04T18:03:13.487Z,36.30
2017-06-04T18:05:41.554Z,37.30
2017-06-04T18:08:10.376Z,38.30
2017-06-04T18:10:38.443Z,39.50
2017-06-04T18:13:07.277Z,39.60
2017-06-04T18:15:35.720Z,39.50
2017-06-04T18:18:04.538Z,40.30
2017-06-04T18:20:32.589Z,40.30
2017-06-04T18:23:00.686Z,39.80
2017-06-04T18:25:28.737Z,39.70
2017-06-04T18:27:56.875Z,39.40
2017-06-04T18:30:24.950Z,40.20
2017-06-04T18:32:53.054Z,40.40
2017-06-04T18:35:21.110Z,41.00
2017-06-04T18:37:49.990Z,41.80
2017-06-04T18:40:18.070Z,41.70
2017-06-04T18:42:46.174Z,41.90
2017-06-04T18:45:14.297Z,40.00
2017-06-04T18:47:42.376Z,41.80
2017-06-04T18:50:10.478Z,41.30
2017-06-04T18:52:39.294Z,40.00
2017-06-04T18:55:07.366Z,40.00
2017-06-04T18:57:35.450Z,40.10
2017-06-04T19:00:03.616Z,40.70
2017-06-04T19:02:32.396Z,41.00
2017-06-04T19:05:00.465Z,40.90
2017-06-04T19:07:28.550Z,40.60
2017-06-04T19:09:56.730Z,39.90
2017-06-04T19:12:24.785Z,40.10
2017-06-04T19:14:52.970Z,40.40
2017-06-04T19:17:21.034Z,41.30
2017-06-04T19:19:49.087Z,40.60
2017-06-04T19:22:17.237Z,40.40
2017-06-04T19:24:46.070Z,40.60
2017-06-04T19:27:14.146Z,41.20
2017-06-04T19:29:42.198Z,41.10
2017-06-04T19:32:10.279Z,41.40
2017-06-04T19:34:38.367Z,42.50
2017-06-04T19:37:06.435Z,43.10
2017-06-04T19:39:34.506Z,42.90
2017-06-04T19:42:02.594Z,43.10
2017-06-04T19:44:30.674Z,43.10
2017-06-04T19:46:58.710Z,43.30
2017-06-04T19:49:26.802Z,43.90
2017-06-04T19:51:54.865Z,43.80
2017-06-04T19:54:23.172Z,43.80
2017-06-04T19:56:51.235Z,44.40
2017-06-04T19:59:19.381Z,44.70
2017-06-04T20:01:47.454Z,45.60
2017-06-04T20:04:15.519Z,46.20
2017-06-04T20:06:43.610Z,45.80
2017-06-04T20:09:11.670Z,45.50
2017-06-04T20:11:39.741Z,45.50
2017-06-04T20:14:07.828Z,46.00
2017-06-04T20:16:35.882Z,45.60
2017-06-04T20:19:03.961Z,46.00
2017-06-04T20:21:32.094Z,45.80
2017-06-04T20:24:00.959Z,46.40
2017-06-04T20:26:29.063Z,46.40
2017-06-04T20:28:57.879Z,46.60
2017-06-04T20:31:26.007Z,46.70
2017-06-04T20:33:54.120Z,46.50
2017-06-04T20:36:22.221Z,47.70
2017-06-04T20:38:50.270Z,47.30
2017-06-04T20:41:18.781Z,46.20
2017-06-04T20:43:46.850Z,47.40
2017-06-04T20:46:14.934Z,46.60
2017-06-04T20:48:43.007Z,46.40
2017-06-04T20:51:11.062Z,47.40
2017-06-04T20:53:39.679Z,47.60
2017-06-04T20:56:10.329Z,47.80
2017-06-04T20:58:39.174Z,49.80
2017-06-04T21:01:07.270Z,49.70
2017-06-04T21:03:35.366Z,48.20
2017-06-04T21:06:04.182Z,50.30
2017-06-04T21:08:32.234Z,50.20
2017-06-04T21:11:00.310Z,52.30
2017-06-04T21:13:28.370Z,52.10
2017-06-04T21:15:57.205Z,52.60
2017-06-04T21:18:25.295Z,52.50
2017-06-04T21:20:53.386Z,53.30
2017-06-04T21:23:23.339Z,53.20
2017-06-04T21:25:51.400Z,52.70
2017-06-04T21:28:19.466Z,52.30
2017-06-04T21:30:47.645Z,54.30
2017-06-04T21:33:15.716Z,53.70
2017-06-04T21:35:43.814Z,53.70
2017-06-04T21:38:11.895Z,53.00
2017-06-04T21:40:39.978Z,53.30
2017-06-04T21:43:08.080Z,54.00
2017-06-04T21:45:36.121Z,53.60
2017-06-04T21:48:04.206Z,52.40
2017-06-04T21:50:35.665Z,52.10
2017-06-04T21:53:03.747Z,51.00
2017-06-04T21:55:31.822Z,52.20
2017-06-04T21:57:59.883Z,51.80
2017-06-04T22:00:27.967Z,52.00
2017-06-04T22:02:56.058Z,51.60
2017-06-04T22:05:24.957Z,50.80
2017-06-04T22:07:53.878Z,51.70
2017-06-04T22:10:21.954Z,51.60
2017-06-04T22:12:50.044Z,51.70
2017-06-04T22:15:18.086Z,52.20
2017-06-04T22:17:46.167Z,51.90
2017-06-04T22:20:14.222Z,52.40
2017-06-04T22:22:42.298Z,52.50
2017-06-04T22:25:10.392Z,51.00
2017-06-04T22:27:38.490Z,52.70
2017-06-04T22:30:06.566Z,52.90
2017-06-04T22:32:34.683Z,52.60
2017-06-04T22:35:02.747Z,51.60
2017-06-04T22:37:30.794Z,52.80
2017-06-04T22:39:58.472Z,52.40
2017-06-04T22:42:27.175Z,52.00
2017-06-04T22:44:55.529Z,51.70
2017-06-04T22:47:23.533Z,51.60
2017-06-04T22:49:51.201Z,52.30
2017-06-04T22:52:18.737Z,51.80
2017-06-04T22:54:46.734Z,52.30
2017-06-04T22:57:14.341Z,52.30
2017-06-04T22:59:41.889Z,51.90
2017-06-04T23:02:09.402Z,53.00
2017-06-04T23:04:37.362Z,51.70
2017-06-04T23:07:05.737Z,53.10
2017-06-04T23:09:33.710Z,53.00
2017-06-04T23:12:01.798Z,52.70
2017-06-04T23:14:29.853Z,53.10
2017-06-04T23:16:57.926Z,53.30
2017-06-04T23:19:26.006Z,53.20
2017-06-04T23:21:54.062Z,53.90
2017-06-04T23:24:22.195Z,51.90
2017-06-04T23:26:50.266Z,52.10
2017-06-04T23:29:18.316Z,54.60
2017-06-04T23:31:46.399Z,54.00
2017-06-04T23:34:14.475Z,54.90
2017-06-04T23:36:42.531Z,53.80
2017-06-04T23:39:10.611Z,53.50
2017-06-04T23:41:38.703Z,54.60
2017-06-04T23:44:06.758Z,55.30
2017-06-04T23:46:34.842Z,55.50
2017-06-04T23:49:02.898Z,54.80
2017-06-04T23:51:31.014Z,54.80
2017-06-04T23:53:59.866Z,55.40
2017-06-04T23:56:27.943Z,55.30
2017-06-04T23:58:56.038Z,55.40
